Time;durP1;ratioP1;P1;durP2;ratioP2;P2;SDS_P1;SDS_P2;PMS_P1;PMS_P2;Temp;Humidity;BMP_temperature;BMP_pressure;BME280_temperature;BME280_humidity;BME280_pressure;Samples;Min_cycle;Max_cycle;Signal;HPM_P1;HPM_P2
2021/11/13 00:00:08;;;;;;;;;;;;;;;22.25;49.80;102099.44;2074723;28;1914;-54
2021/11/13 00:01:09;;;;;;;;;;;;;;;22.30;50.96;102095.75;2074772;28;1762;-54
2021/11/13 00:02:10;;;;;;;;;;;;;;;22.23;52.82;102099.50;2074842;28;848;-54
2021/11/13 00:03:11;;;;;;;;;;;;;;;22.19;53.60;102095.09;2074652;28;843;-54
2021/11/13 00:04:11;;;;;;;;;;;;;;;22.20;52.11;102092.34;2074922;28;834;-54
2021/11/13 00:05:11;;;;;;;;;;;;;;;22.21;53.07;102085.16;2074901;28;807;-54
2021/11/13 00:06:11;;;;;;;;;;;;;;;22.22;49.69;102076.13;2074773;28;977;-54
2021/11/13 00:07:12;;;;;;;;;;;;;;;22.20;51.89;102080.66;2074887;28;809;-55
2021/11/13 00:08:12;;;;;;;;;;;;;;;22.19;52.69;102085.16;2074611;28;855;-54
2021/11/13 00:09:14;;;;;;;;;;;;;;;22.14;53.90;102078.97;2074935;28;815;-54
2021/11/13 00:10:16;;;;;;;;;;;;;;;22.16;52.33;102085.22;2074886;28;897;-54
2021/11/13 00:11:16;;;;;;;;;;;;;;;22.18;50.81;102085.22;2074733;28;834;-54
2021/11/13 00:12:16;;;;;;;;;;;;;;;22.15;53.34;102077.16;2074822;28;830;-54
2021/11/13 00:13:19;;;;;;;;;;;;;;;22.08;54.94;102080.91;2074292;28;855;-55
2021/11/13 00:14:20;;;;;;;;;;;;;;;22.06;53.40;102087.22;2074216;28;965;-54
2021/11/13 00:15:21;;;;;;;;;;;;;;;22.09;52.11;102077.28;2074861;28;796;-54
2021/11/13 00:16:22;;;;;;;;;;;;;;;22.13;49.03;102079.00;2074726;28;799;-54
2021/11/13 00:17:22;;;;;;;;;;;;;;;22.16;50.77;102078.94;2074819;28;760;-54
2021/11/13 00:18:22;;;;;;;;;;;;;;;22.11;51.80;102080.84;2074806;28;969;-54
2021/11/13 00:19:22;;;;;;;;;;;;;;;22.03;52.82;102073.78;2074092;28;930;-54
2021/11/13 00:20:25;;;;;;;;;;;;;;;22.03;51.44;102081.88;2074202;28;1981;-54
2021/11/13 00:21:27;;;;;;;;;;;;;;;22.06;51.26;102075.56;2074860;28;850;-54
2021/11/13 00:22:28;;;;;;;;;;;;;;;22.05;51.87;102084.56;2074828;28;806;-54
2021/11/13 00:23:28;;;;;;;;;;;;;;;22.06;52.09;102073.75;2074849;28;821;-54
2021/11/13 00:24:29;;;;;;;;;;;;;;;22.02;52.87;102076.53;2074611;28;992;-54
2021/11/13 00:25:30;;;;;;;;;;;;;;;21.99;52.33;102074.78;2074817;28;905;-55
2021/11/13 00:26:30;;;;;;;;;;;;;;;21.98;52.94;102067.59;2074784;28;870;-54
2021/11/13 00:27:30;;;;;;;;;;;;;;;22.05;50.40;102066.56;2074240;28;1017;-54
2021/11/13 00:28:30;;;;;;;;;;;;;;;22.09;50.73;102071.91;2074772;28;862;-54
2021/11/13 00:29:31;;;;;;;;;;;;;;;22.06;51.57;102072.88;2074801;28;974;-54
2021/11/13 00:30:31;;;;;;;;;;;;;;;22.04;51.63;102069.31;2074736;28;931;-54
2021/11/13 00:31:32;;;;;;;;;;;;;;;22.01;52.66;102070.25;2074892;28;863;-54
2021/11/13 00:32:32;;;;;;;;;;;;;;;21.99;51.66;102077.47;2074741;28;779;-54
2021/11/13 00:33:32;;;;;;;;;;;;;;;22.03;52.04;102064.84;2074824;28;1017;-55
2021/11/13 00:34:33;;;;;;;;;;;;;;;21.96;51.21;102072.13;2074780;28;878;-54
2021/11/13 00:35:33;;;;;;;;;;;;;;;22.02;50.50;102073.84;2076046;28;922;-54
2021/11/13 00:36:34;;;;;;;;;;;;;;;22.00;50.21;102079.25;2076329;28;787;-54
2021/11/13 00:37:34;;;;;;;;;;;;;;;21.98;51.93;102075.69;2076269;28;925;-54
2021/11/13 00:38:34;;;;;;;;;;;;;;;21.90;53.13;102075.88;2068757;28;1308;-54
2021/11/13 00:39:34;;;;;;;;;;;;;;;21.89;53.42;102078.56;2068078;28;1887;-54
2021/11/13 00:40:35;;;;;;;;;;;;;;;21.88;51.23;102077.69;2068048;28;977;-54
2021/11/13 00:41:35;;;;;;;;;;;;;;;21.88;51.52;102076.78;2067907;28;846;-54
2021/11/13 00:42:36;;;;;;;;;;;;;;;21.86;52.83;102065.13;2068072;28;800;-54
2021/11/13 00:43:36;;;;;;;;;;;;;;;21.91;50.85;102069.53;2068031;28;859;-54
2021/11/13 00:44:37;;;;;;;;;;;;;;;21.93;50.88;102072.19;2067769;28;819;-54
2021/11/13 00:45:37;;;;;;;;;;;;;;;21.94;52.29;102073.09;2068094;28;831;-54
2021/11/13 00:46:37;;;;;;;;;;;;;;;21.89;50.89;102073.19;2068033;28;1025;-54
2021/11/13 00:47:38;;;;;;;;;;;;;;;21.91;50.64;102068.63;2068020;28;977;-54
2021/11/13 00:48:38;;;;;;;;;;;;;;;21.90;51.28;102069.56;2067940;28;902;-54
2021/11/13 00:49:38;;;;;;;;;;;;;;;21.88;51.61;102066.91;2067664;28;819;-54
2021/11/13 00:50:40;;;;;;;;;;;;;;;21.88;51.56;102068.69;2067957;28;788;-55
2021/11/13 00:51:40;;;;;;;;;;;;;;;21.91;51.06;102074.94;2067551;28;819;-54
2021/11/13 00:52:41;;;;;;;;;;;;;;;21.86;53.92;102070.53;2067348;28;737;-55
2021/11/13 00:53:41;;;;;;;;;;;;;;;21.82;52.82;102076.91;2068039;28;820;-54
2021/11/13 00:54:41;;;;;;;;;;;;;;;21.90;51.01;102073.16;2067926;28;1302;-55
2021/11/13 00:55:42;;;;;;;;;;;;;;;21.84;51.05;102073.28;2067989;28;998;-55
2021/11/13 00:56:42;;;;;;;;;;;;;;;21.79;51.96;102074.28;2068009;28;986;-54
2021/11/13 00:57:43;;;;;;;;;;;;;;;21.86;50.67;102071.44;2067760;28;1056;-54
2021/11/13 00:58:43;;;;;;;;;;;;;;;21.83;52.93;102067.91;2067885;28;1422;-54
2021/11/13 00:59:44;;;;;;;;;;;;;;;21.83;50.85;102076.91;2067868;28;1907;-54
2021/11/13 01:00:44;;;;;;;;;;;;;;;21.84;53.40;102072.38;2067539;28;855;-55
2021/11/13 01:01:45;;;;;;;;;;;;;;;21.76;53.66;102072.53;2068042;28;1328;-54
2021/11/13 01:02:45;;;;;;;;;;;;;;;21.77;51.11;102077.91;2067966;28;960;-54
2021/11/13 01:03:45;;;;;;;;;;;;;;;21.74;52.47;102075.28;2067881;28;835;-54
2021/11/13 01:04:45;;;;;;;;;;;;;;;21.74;51.25;102075.28;2067900;28;793;-54
2021/11/13 01:05:46;;;;;;;;;;;;;;;21.85;51.98;102077.75;2067893;28;786;-54
2021/11/13 01:06:48;;;;;;;;;;;;;;;21.81;50.19;102078.72;2067940;28;871;-54
2021/11/13 01:07:48;;;;;;;;;;;;;;;21.73;51.94;102081.59;2067881;28;855;-55
2021/11/13 01:08:48;;;;;;;;;;;;;;;21.76;50.76;102081.53;2067861;28;894;-54
2021/11/13 01:09:48;;;;;;;;;;;;;;;21.72;53.13;102079.81;2067937;28;791;-54
2021/11/13 01:10:49;;;;;;;;;;;;;;;21.71;53.93;102078.03;2067628;28;1228;-54
2021/11/13 01:11:49;;;;;;;;;;;;;;;21.71;50.93;102082.50;2067919;28;1039;-54
2021/11/13 01:12:49;;;;;;;;;;;;;;;21.68;52.21;102083.47;2067847;28;788;-54
2021/11/13 01:13:50;;;;;;;;;;;;;;;21.71;51.89;102082.50;2067740;28;795;-54
2021/11/13 01:14:50;;;;;;;;;;;;;;;21.68;52.67;102079.88;2067893;28;981;-54
2021/11/13 01:15:50;;;;;;;;;;;;;;;21.75;52.63;102079.75;2067749;28;1000;-54
2021/11/13 01:16:51;;;;;;;;;;;;;;;21.74;51.64;102077.06;2067606;28;1521;-54
2021/11/13 01:17:51;;;;;;;;;;;;;;;21.74;51.50;102079.75;2067878;28;851;-54
2021/11/13 01:18:52;;;;;;;;;;;;;;;21.68;52.89;102088.88;2067596;28;974;-54
2021/11/13 01:19:52;;;;;;;;;;;;;;;21.70;53.20;102092.44;2067792;28;1898;-54
2021/11/13 01:20:52;;;;;;;;;;;;;;;21.73;54.03;102084.28;2067769;28;997;-54
2021/11/13 01:21:53;;;;;;;;;;;;;;;21.70;53.19;102086.13;2067587;28;799;-54
2021/11/13 01:22:53;;;;;;;;;;;;;;;21.67;52.09;102086.19;2067803;28;1005;-54
2021/11/13 01:23:53;;;;;;;;;;;;;;;21.70;51.18;102088.81;2067803;28;800;-54
2021/11/13 01:24:53;;;;;;;;;;;;;;;21.73;50.93;102092.38;2067240;28;1024;-54
2021/11/13 01:25:53;;;;;;;;;;;;;;;21.72;51.59;102098.69;2067808;28;943;-55
2021/11/13 01:26:53;;;;;;;;;;;;;;;21.71;51.67;102093.31;2067701;28;907;-54
2021/11/13 01:27:54;;;;;;;;;;;;;;;21.72;51.80;102090.59;2067591;28;1418;-54
2021/11/13 01:28:54;;;;;;;;;;;;;;;21.64;53.34;102089.84;2067732;28;875;-54
2021/11/13 01:29:54;;;;;;;;;;;;;;;21.69;50.18;102096.03;2067338;28;1028;-54
2021/11/13 01:30:54;;;;;;;;;;;;;;;21.75;52.53;102084.25;2067726;28;763;-54
2021/11/13 01:31:55;;;;;;;;;;;;;;;21.67;52.81;102086.19;2067785;28;1325;-54
2021/11/13 01:32:55;;;;;;;;;;;;;;;21.72;52.24;102087.00;2067610;28;966;-54
2021/11/13 01:33:57;;;;;;;;;;;;;;;21.66;51.97;102085.31;2067745;28;878;-55
2021/11/13 01:34:57;;;;;;;;;;;;;;;21.62;52.38;102083.59;2067704;28;750;-54
2021/11/13 01:35:59;;;;;;;;;;;;;;;21.66;52.87;102087.09;2067385;28;1055;-54
2021/11/13 01:36:59;;;;;;;;;;;;;;;21.71;50.77;102083.44;2067711;28;783;-55
2021/11/13 01:37:59;;;;;;;;;;;;;;;21.69;51.21;102087.97;2069860;28;1463;-55
2021/11/13 01:39:00;;;;;;;;;;;;;;;21.73;51.56;102089.69;2075422;28;1045;-54
2021/11/13 01:40:01;;;;;;;;;;;;;;;21.72;52.24;102093.28;2075565;28;1898;-54
2021/11/13 01:41:01;;;;;;;;;;;;;;;21.63;53.71;102096.16;2075636;28;885;-54
2021/11/13 01:42:02;;;;;;;;;;;;;;;21.65;52.89;102097.00;2074883;28;982;-54
2021/11/13 01:43:03;;;;;;;;;;;;;;;21.69;51.88;102096.03;2075128;28;1179;-55
2021/11/13 01:44:04;;;;;;;;;;;;;;;21.68;51.63;102096.97;2075731;28;1546;-54
2021/11/13 01:45:06;;;;;;;;;;;;;;;21.66;53.37;102090.72;2075853;28;766;-54
2021/11/13 01:46:07;;;;;;;;;;;;;;;21.66;51.82;102092.50;2075429;28;1125;-54
2021/11/13 01:47:08;;;;;;;;;;;;;;;21.64;53.34;102081.75;2075204;28;846;-54
2021/11/13 01:48:08;;;;;;;;;;;;;;;21.65;52.66;102088.94;2075668;28;855;-54
2021/11/13 01:49:08;;;;;;;;;;;;;;;21.64;53.66;102087.16;2075704;28;969;-54
2021/11/13 01:50:10;;;;;;;;;;;;;;;21.61;52.30;102087.16;2075338;28;752;-52
2021/11/13 01:51:24;;;;;;;;;;;;;;;21.66;51.26;102090.72;2075652;28;754;-52
2021/11/13 01:52:24;;;;;;;;;;;;;;;21.57;53.09;102089.00;2075626;28;1012;-53
2021/11/13 01:53:24;;;;;;;;;;;;;;;21.54;53.03;102094.44;2075624;28;1016;-53
2021/11/13 01:54:25;;;;;;;;;;;;;;;21.57;52.46;102101.63;2075665;28;864;-53
2021/11/13 01:55:28;;;;;;;;;;;;;;;21.59;53.36;102089.00;2075591;28;736;-55
2021/11/13 01:56:28;;;;;;;;;;;;;;;21.60;52.29;102098.88;2075527;28;1263;-54
2021/11/13 01:57:33;;;;;;;;;;;;;;;21.55;53.71;102103.44;2075460;28;1401;-54
2021/11/13 01:58:33;;;;;;;;;;;;;;;21.59;53.84;102105.19;2075534;28;901;-54
2021/11/13 01:59:34;;;;;;;;;;;;;;;21.60;52.14;102104.25;2075559;28;1963;-54
2021/11/13 02:00:36;;;;;;;;;;;;;;;21.60;51.00;102109.66;2075227;28;870;-54
2021/11/13 02:01:36;;;;;;;;;;;;;;;21.58;52.44;102115.06;2075592;28;919;-54
2021/11/13 02:02:36;;;;;;;;;;;;;;;21.56;54.61;102113.31;2075532;28;1067;-54
2021/11/13 02:03:37;;;;;;;;;;;;;;;21.53;52.02;102105.28;2075083;28;981;-54
2021/11/13 02:04:37;;;;;;;;;;;;;;;21.55;53.28;102114.25;2075535;28;1086;-54
2021/11/13 02:05:37;;;;;;;;;;;;;;;21.50;53.05;102105.34;2075596;28;819;-54
2021/11/13 02:06:37;;;;;;;;;;;;;;;21.51;52.98;102113.38;2075183;28;808;-54
2021/11/13 02:07:38;;;;;;;;;;;;;;;21.52;52.75;102112.47;2075558;28;1068;-54
2021/11/13 02:08:39;;;;;;;;;;;;;;;21.55;51.53;102111.53;2075415;28;838;-54
2021/11/13 02:09:39;;;;;;;;;;;;;;;21.49;52.61;102104.44;2075147;28;858;-54
2021/11/13 02:10:39;;;;;;;;;;;;;;;21.52;51.27;102104.38;2075568;28;834;-54
2021/11/13 02:11:39;;;;;;;;;;;;;;;21.51;52.83;102102.59;2075543;28;1088;-54
2021/11/13 02:12:40;;;;;;;;;;;;;;;21.51;52.93;102108.00;2075092;28;1041;-56
2021/11/13 02:13:40;;;;;;;;;;;;;;;21.50;53.74;102110.72;2075584;28;838;-54
2021/11/13 02:14:40;;;;;;;;;;;;;;;21.47;52.00;102111.69;2075473;28;1027;-54
2021/11/13 02:15:41;;;;;;;;;;;;;;;21.53;53.15;102111.53;2075312;28;1307;-54
2021/11/13 02:16:41;;;;;;;;;;;;;;;21.58;52.84;102114.19;2074904;28;800;-54
2021/11/13 02:17:42;;;;;;;;;;;;;;;21.53;53.20;102110.69;2074885;28;993;-55
2021/11/13 02:18:43;;;;;;;;;;;;;;;21.47;52.66;102112.56;2075426;28;819;-54
2021/11/13 02:19:48;;;;;;;;;;;;;;;21.53;52.04;102110.69;2075410;28;1890;-54
2021/11/13 02:20:49;;;;;;;;;;;;;;;21.44;52.33;102104.53;2075364;28;997;-54
2021/11/13 02:21:49;;;;;;;;;;;;;;;21.47;52.36;102107.16;2075468;28;820;-54
2021/11/13 02:22:49;;;;;;;;;;;;;;;21.58;52.49;102093.50;2075377;28;981;-54
2021/11/13 02:23:50;;;;;;;;;;;;;;;21.51;54.06;102101.72;2075186;28;1310;-54
2021/11/13 02:24:50;;;;;;;;;;;;;;;21.52;52.03;102101.69;2075460;28;867;-54
2021/11/13 02:25:51;;;;;;;;;;;;;;;21.53;51.52;102099.91;2075421;28;772;-54
2021/11/13 02:26:52;;;;;;;;;;;;;;;21.56;50.83;102097.16;2075033;28;961;-54
2021/11/13 02:27:52;;;;;;;;;;;;;;;21.52;52.32;102090.03;2075472;28;1395;-54
2021/11/13 02:28:55;;;;;;;;;;;;;;;21.45;53.38;102100.91;2075168;28;1001;-54
2021/11/13 02:29:55;;;;;;;;;;;;;;;21.45;53.27;102097.34;2075410;28;823;-54
2021/11/13 02:30:57;;;;;;;;;;;;;;;21.50;53.46;102089.16;2075320;28;855;-54
2021/11/13 02:31:58;;;;;;;;;;;;;;;21.47;51.21;102085.59;2075215;28;881;-54
2021/11/13 02:32:58;;;;;;;;;;;;;;;21.51;51.51;102090.94;2075367;28;875;-54
2021/11/13 02:33:58;;;;;;;;;;;;;;;21.51;52.11;102081.03;2075446;28;1169;-54
2021/11/13 02:34:58;;;;;;;;;;;;;;;21.43;53.93;102088.38;2075082;28;858;-54
2021/11/13 02:35:59;;;;;;;;;;;;;;;21.47;52.72;102077.50;2075385;28;985;-54
2021/11/13 02:36:59;;;;;;;;;;;;;;;21.54;52.83;102080.97;2075236;28;922;-54
2021/11/13 02:38:26;;;;;;;;;;;;;;;21.50;52.48;102090.03;2072967;28;1394;-54
2021/11/13 02:39:26;;;;;;;;;;;;;;;21.43;53.21;102091.97;2066857;28;1135;-54
2021/11/13 02:40:27;;;;;;;;;;;;;;;21.38;53.21;102091.16;2067123;28;1870;-55
2021/11/13 02:41:29;;;;;;;;;;;;;;;21.42;53.18;102092.88;2067251;28;753;-54
2021/11/13 02:42:29;;;;;;;;;;;;;;;21.48;52.37;102087.38;2066874;28;793;-54
2021/11/13 02:43:30;;;;;;;;;;;;;;;21.52;52.08;102084.63;2067157;28;916;-55
2021/11/13 02:44:31;;;;;;;;;;;;;;;21.55;51.58;102085.44;2067138;28;887;-54
2021/11/13 02:45:32;;;;;;;;;;;;;;;21.50;51.74;102097.25;2067057;28;800;-54
2021/11/13 02:46:33;;;;;;;;;;;;;;;21.52;51.88;102093.59;2067154;28;938;-54
2021/11/13 02:47:34;;;;;;;;;;;;;;;21.57;51.39;102086.31;2067035;28;857;-54
2021/11/13 02:48:35;;;;;;;;;;;;;;;21.50;54.06;102087.34;2067058;28;969;-54
2021/11/13 02:49:36;;;;;;;;;;;;;;;21.51;53.07;102089.13;2067145;28;1005;-54
2021/11/13 02:50:36;;;;;;;;;;;;;;;21.50;52.50;102081.94;2066795;28;879;-54
2021/11/13 02:51:36;;;;;;;;;;;;;;;21.50;51.82;102081.94;2066915;28;993;-54
2021/11/13 02:52:40;;;;;;;;;;;;;;;21.53;51.70;102084.59;2067134;28;871;-54
2021/11/13 02:53:42;;;;;;;;;;;;;;;21.48;51.87;102087.38;2067043;28;784;-54
2021/11/13 02:54:47;;;;;;;;;;;;;;;21.48;51.68;102086.50;2067046;28;1243;-54
2021/11/13 02:55:48;;;;;;;;;;;;;;;21.53;52.70;102089.09;2066896;28;799;-54
2021/11/13 02:56:48;;;;;;;;;;;;;;;21.50;51.10;102094.56;2066862;28;776;-54
2021/11/13 02:57:48;;;;;;;;;;;;;;;21.47;53.09;102092.81;2066927;28;1150;-54
2021/11/13 02:58:49;;;;;;;;;;;;;;;21.40;52.70;102094.72;2066843;28;1136;-54
2021/11/13 02:59:49;;;;;;;;;;;;;;;21.51;52.08;102097.19;2066754;28;1910;-54
2021/11/13 03:00:52;;;;;;;;;;;;;;;21.48;51.88;102098.16;2067003;28;1317;-54
2021/11/13 03:01:52;;;;;;;;;;;;;;;21.44;52.12;102096.44;2067085;28;780;-54
2021/11/13 03:02:52;;;;;;;;;;;;;;;21.50;51.64;102095.44;2067067;28;810;-54
2021/11/13 03:03:54;;;;;;;;;;;;;;;21.53;52.68;102083.72;2066734;28;788;-54
2021/11/13 03:04:54;;;;;;;;;;;;;;;21.48;52.70;102097.28;2067076;28;838;-54
2021/11/13 03:05:56;;;;;;;;;;;;;;;21.44;52.01;102098.25;2066907;28;1049;-55
2021/11/13 03:06:56;;;;;;;;;;;;;;;21.48;51.96;102098.16;2067035;28;908;-54
2021/11/13 03:07:58;;;;;;;;;;;;;;;21.46;52.13;102100.00;2067041;28;989;-54
2021/11/13 03:08:58;;;;;;;;;;;;;;;21.50;52.31;102098.13;2066676;28;768;-54
2021/11/13 03:09:58;;;;;;;;;;;;;;;21.60;50.64;102088.97;2067007;28;839;-54
2021/11/13 03:11:04;;;;;;;;;;;;;;;21.67;51.62;102094.28;2066970;28;1176;-54
2021/11/13 03:12:04;;;;;;;;;;;;;;;21.61;51.13;102087.16;2066604;28;1249;-54
2021/11/13 03:13:05;;;;;;;;;;;;;;;21.56;52.11;102086.34;2066974;28;855;-54
2021/11/13 03:14:05;;;;;;;;;;;;;;;21.51;53.44;102102.59;2066874;28;941;-54
2021/11/13 03:15:06;;;;;;;;;;;;;;;21.44;52.37;102095.56;2066596;28;776;-55
2021/11/13 03:16:07;;;;;;;;;;;;;;;21.41;52.85;102096.50;2066980;28;1103;-54
2021/11/13 03:17:11;;;;;;;;;;;;;;;21.45;53.49;102100.91;2066808;28;969;-54
2021/11/13 03:18:11;;;;;;;;;;;;;;;21.51;51.13;102088.25;2066790;28;883;-55
2021/11/13 03:19:12;;;;;;;;;;;;;;;21.51;52.17;102088.25;2067002;28;863;-54
2021/11/13 03:20:14;;;;;;;;;;;;;;;21.47;52.40;102091.00;2066595;28;1898;-54
2021/11/13 03:21:14;;;;;;;;;;;;;;;21.45;51.67;102092.81;2066735;28;870;-55
2021/11/13 03:22:15;;;;;;;;;;;;;;;21.55;51.71;102082.75;2066951;28;830;-55
2021/11/13 03:23:16;;;;;;;;;;;;;;;21.57;51.89;102082.75;2066768;28;1349;-54
2021/11/13 03:24:16;;;;;;;;;;;;;;;21.58;50.92;102082.69;2066784;28;1648;-54
2021/11/13 03:25:19;;;;;;;;;;;;;;;21.55;52.99;102074.66;2066850;28;764;-54
2021/11/13 03:26:20;;;;;;;;;;;;;;;21.45;53.17;102089.25;2066812;28;852;-54
2021/11/13 03:27:21;;;;;;;;;;;;;;;21.45;52.46;102086.56;2066976;28;978;-54
2021/11/13 03:28:23;;;;;;;;;;;;;;;21.50;51.23;102078.38;2066586;28;1028;-54
2021/11/13 03:29:27;;;;;;;;;;;;;;;21.43;53.99;102081.19;2066993;28;740;-54
2021/11/13 03:30:28;;;;;;;;;;;;;;;21.50;51.94;102081.94;2066891;28;985;-54
2021/11/13 03:31:29;;;;;;;;;;;;;;;21.49;52.14;102088.25;2066780;28;997;-55
2021/11/13 03:32:29;;;;;;;;;;;;;;;21.47;52.48;102091.00;2066904;28;827;-54
2021/11/13 03:33:30;;;;;;;;;;;;;;;21.45;52.58;102084.72;2066893;28;1029;-54
2021/11/13 03:34:33;;;;;;;;;;;;;;;21.39;52.46;102086.66;2066827;28;926;-54
2021/11/13 03:35:34;;;;;;;;;;;;;;;21.44;51.24;102087.47;2066826;28;820;-54
2021/11/13 03:36:34;;;;;;;;;;;;;;;21.46;51.08;102091.03;2066541;28;894;-54
2021/11/13 03:37:35;;;;;;;;;;;;;;;21.41;52.92;102092.91;2066829;28;784;-54
2021/11/13 03:38:37;;;;;;;;;;;;;;;21.50;52.83;102099.94;2073836;28;1306;-54
2021/11/13 03:39:37;;;;;;;;;;;;;;;21.47;52.62;102091.00;2074656;28;1878;-54
2021/11/13 03:40:38;;;;;;;;;;;;;;;21.41;52.12;102090.22;2074976;28;1016;-54
2021/11/13 03:41:39;;;;;;;;;;;;;;;21.45;51.62;102092.81;2075026;28;933;-54
2021/11/13 03:42:40;;;;;;;;;;;;;;;21.47;50.74;102095.50;2074691;28;783;-54
2021/11/13 03:43:40;;;;;;;;;;;;;;;21.48;51.73;102087.38;2074676;28;815;-56
2021/11/13 03:44:40;;;;;;;;;;;;;;;21.46;50.83;102089.22;2074919;28;1036;-56
2021/11/13 03:45:42;;;;;;;;;;;;;;;21.48;51.48;102090.06;2074852;28;1352;-54
2021/11/13 03:46:42;;;;;;;;;;;;;;;21.55;51.32;102089.97;2074587;28;850;-54
2021/11/13 03:47:42;;;;;;;;;;;;;;;21.53;51.38;102095.38;2074972;28;965;-54
2021/11/13 03:48:43;;;;;;;;;;;;;;;21.48;52.25;102092.78;2074866;28;837;-54
2021/11/13 03:49:43;;;;;;;;;;;;;;;21.42;51.88;102092.88;2074721;28;830;-55
2021/11/13 03:50:43;;;;;;;;;;;;;;;21.46;51.09;102093.72;2074800;28;989;-54
2021/11/13 03:51:43;;;;;;;;;;;;;;;21.43;53.11;102099.19;2075012;28;1035;-54
2021/11/13 03:52:44;;;;;;;;;;;;;;;21.41;53.45;102101.88;2074846;28;835;-54
2021/11/13 03:53:44;;;;;;;;;;;;;;;21.42;51.45;102098.25;2074778;28;843;-55
2021/11/13 03:54:45;;;;;;;;;;;;;;;21.47;51.05;102100.91;2074910;28;902;-54
2021/11/13 03:55:45;;;;;;;;;;;;;;;21.50;51.68;102099.94;2074847;28;866;-54
2021/11/13 03:56:45;;;;;;;;;;;;;;;21.44;52.21;102098.25;2074881;28;780;-55
2021/11/13 03:57:45;;;;;;;;;;;;;;;21.44;52.09;102100.94;2074707;28;1150;-54
2021/11/13 03:58:45;;;;;;;;;;;;;;;21.45;51.21;102102.72;2074763;28;847;-54
2021/11/13 03:59:46;;;;;;;;;;;;;;;21.43;51.65;102105.44;2074827;28;1902;-54
2021/11/13 04:00:46;;;;;;;;;;;;;;;21.42;52.21;102109.03;2074850;28;819;-54
2021/11/13 04:01:47;;;;;;;;;;;;;;;21.43;51.36;102109.97;2074422;28;965;-54
2021/11/13 04:02:48;;;;;;;;;;;;;;;21.46;52.13;102104.50;2074883;28;879;-55
2021/11/13 04:03:48;;;;;;;;;;;;;;;21.47;51.18;102109.88;2074939;28;780;-54
2021/11/13 04:04:48;;;;;;;;;;;;;;;21.44;51.61;102107.22;2074774;28;831;-54
2021/11/13 04:05:48;;;;;;;;;;;;;;;21.44;51.75;102109.91;2074870;28;1017;-54
2021/11/13 04:06:48;;;;;;;;;;;;;;;21.40;52.05;102104.63;2074888;28;775;-54
2021/11/13 04:07:49;;;;;;;;;;;;;;;21.39;52.37;102108.22;2074535;28;1060;-54
2021/11/13 04:08:49;;;;;;;;;;;;;;;21.40;52.30;102110.88;2074823;28;1033;-54
2021/11/13 04:09:50;;;;;;;;;;;;;;;21.40;52.53;102110.00;2075326;28;1251;-54
2021/11/13 04:10:50;;;;;;;;;;;;;;;21.35;52.39;102107.38;2076359;28;1020;-55
2021/11/13 04:11:50;;;;;;;;;;;;;;;21.39;51.61;102109.09;2076120;28;812;-54
2021/11/13 04:12:50;;;;;;;;;;;;;;;21.45;51.82;102103.59;2076254;28;822;-54
2021/11/13 04:13:51;;;;;;;;;;;;;;;21.47;52.86;102117.06;2076478;28;772;-54
2021/11/13 04:14:51;;;;;;;;;;;;;;;21.43;53.40;102113.53;2076381;28;926;-54
2021/11/13 04:15:51;;;;;;;;;;;;;;;21.43;51.13;102118.91;2076373;28;760;-54
2021/11/13 04:16:51;;;;;;;;;;;;;;;21.56;51.62;102121.41;2076355;28;776;-54
2021/11/13 04:17:52;;;;;;;;;;;;;;;21.51;50.39;102117.91;2076381;28;954;-54
2021/11/13 04:18:52;;;;;;;;;;;;;;;21.52;52.54;102117.84;2076040;28;925;-54
2021/11/13 04:19:52;;;;;;;;;;;;;;;21.55;50.54;102119.63;2076289;28;1890;-54
2021/11/13 04:20:52;;;;;;;;;;;;;;;21.53;51.67;102118.75;2076371;28;843;-54
2021/11/13 04:21:53;;;;;;;;;;;;;;;21.50;51.83;102116.13;2076324;28;1056;-54
2021/11/13 04:22:53;;;;;;;;;;;;;;;21.44;52.61;102119.81;2076400;28;890;-55
2021/11/13 04:23:53;;;;;;;;;;;;;;;21.50;51.52;102119.69;2076216;28;780;-55
2021/11/13 04:24:53;;;;;;;;;;;;;;;21.45;52.01;102122.47;2076310;28;1020;-54
2021/11/13 04:25:55;;;;;;;;;;;;;;;21.48;52.37;102124.25;2076361;28;1092;-54
2021/11/13 04:26:55;;;;;;;;;;;;;;;21.35;51.77;102118.16;2075874;28;848;-54
2021/11/13 04:27:56;;;;;;;;;;;;;;;21.41;51.21;102118.06;2076355;28;897;-54
2021/11/13 04:28:56;;;;;;;;;;;;;;;21.45;51.93;102118.91;2076287;28;816;-54
2021/11/13 04:29:57;;;;;;;;;;;;;;;21.39;52.57;102117.19;2076238;28;761;-54
2021/11/13 04:30:57;;;;;;;;;;;;;;;21.42;51.58;102116.25;2076296;28;827;-54
2021/11/13 04:31:58;;;;;;;;;;;;;;;21.42;52.70;102110.88;2076121;28;847;-54
2021/11/13 04:32:58;;;;;;;;;;;;;;;21.44;50.81;102109.03;2076082;28;763;-54
2021/11/13 04:34:01;;;;;;;;;;;;;;;21.60;49.98;102112.34;2076384;28;825;-54
2021/11/13 04:35:14;;;;;;;;;;;;;;;21.55;50.43;102108.84;2076320;28;812;-54
2021/11/13 04:36:21;;;;;;;;;;;;;;;21.46;51.15;102105.38;2076293;28;847;-54
2021/11/13 04:37:21;;;;;;;;;;;;;;;21.55;50.29;102109.72;2076336;28;854;-55
2021/11/13 04:38:21;;;;;;;;;;;;;;;21.42;52.10;102108.19;2071002;28;1166;-54
2021/11/13 04:39:23;;;;;;;;;;;;;;;21.44;52.23;102111.75;2068144;28;822;-54
2021/11/13 04:40:25;;;;;;;;;;;;;;;21.49;51.39;102109.81;2067953;28;1890;-55
2021/11/13 04:41:25;;;;;;;;;;;;;;;21.45;51.04;102109.00;2068126;28;827;-54
2021/11/13 04:42:25;;;;;;;;;;;;;;;21.39;53.03;102106.41;2068061;28;792;-54
2021/11/13 04:43:25;;;;;;;;;;;;;;;21.40;53.02;102105.50;2067949;28;1033;-54
2021/11/13 04:44:25;;;;;;;;;;;;;;;21.42;51.66;102109.03;2068061;28;980;-55
2021/11/13 04:45:26;;;;;;;;;;;;;;;21.43;52.10;102104.56;2068134;28;756;-54
2021/11/13 04:46:26;;;;;;;;;;;;;;;21.41;53.13;102099.19;2067722;28;827;-54
2021/11/13 04:47:26;;;;;;;;;;;;;;;21.42;51.98;102108.19;2068003;28;867;-54
2021/11/13 04:48:26;;;;;;;;;;;;;;;21.32;53.35;102107.41;2068165;28;807;-54
2021/11/13 04:49:27;;;;;;;;;;;;;;;21.36;51.77;102106.44;2067764;28;819;-54
2021/11/13 04:50:27;;;;;;;;;;;;;;;21.49;51.67;102104.44;2068042;28;859;-55
2021/11/13 04:51:27;;;;;;;;;;;;;;;21.47;52.52;102107.16;2068100;28;922;-55
2021/11/13 04:52:28;;;;;;;;;;;;;;;21.43;52.47;102112.66;2068018;28;857;-54
2021/11/13 04:53:28;;;;;;;;;;;;;;;21.47;51.01;102109.88;2068075;28;822;-55
2021/11/13 04:54:28;;;;;;;;;;;;;;;21.46;51.46;102105.38;2067886;28;969;-54
2021/11/13 04:55:28;;;;;;;;;;;;;;;21.47;51.26;102112.56;2067804;28;832;-54
2021/11/13 04:56:29;;;;;;;;;;;;;;;21.50;51.59;102110.72;2067994;28;1222;-54
2021/11/13 04:57:29;;;;;;;;;;;;;;;21.51;52.48;102110.69;2067803;28;1260;-55
2021/11/13 04:58:29;;;;;;;;;;;;;;;21.44;50.63;102109.91;2068007;28;783;-54
2021/11/13 04:59:29;;;;;;;;;;;;;;;21.47;52.09;102111.69;2067966;28;1052;-55
2021/11/13 05:00:31;;;;;;;;;;;;;;;21.42;51.56;102117.13;2067766;28;1963;-54
2021/11/13 05:01:31;;;;;;;;;;;;;;;21.43;52.21;102120.75;2068054;28;859;-54
2021/11/13 05:02:31;;;;;;;;;;;;;;;21.38;53.01;102120.78;2067814;28;764;-54
2021/11/13 05:03:31;;;;;;;;;;;;;;;21.37;51.63;102124.41;2067914;28;811;-55
2021/11/13 05:04:31;;;;;;;;;;;;;;;21.51;51.57;102126.84;2067532;28;977;-54
2021/11/13 05:05:32;;;;;;;;;;;;;;;22.31;48.65;102119.13;2067821;28;1028;-55
2021/11/13 05:06:32;;;;;;;;;;;;;;;22.71;48.60;102124.63;2067961;28;855;-54
2021/11/13 05:07:32;;;;;;;;;;;;;;;22.99;49.57;102124.88;2067986;28;977;-54
2021/11/13 05:08:32;;;;;;;;;;;;;;;23.08;46.89;102116.56;2067831;28;981;-54
2021/11/13 05:09:32;;;;;;;;;;;;;;;23.22;47.09;102118.03;2067918;28;824;-54
2021/11/13 05:10:32;;;;;;;;;;;;;;;23.30;48.00;102123.28;2067790;28;1204;-54
2021/11/13 05:11:32;;;;;;;;;;;;;;;23.33;49.22;102125.91;2067751;28;781;-55
2021/11/13 05:12:33;;;;;;;;;;;;;;;23.42;46.83;102122.06;2067909;28;965;-54
2021/11/13 05:13:34;;;;;;;;;;;;;;;23.48;47.27;102124.63;2067930;28;772;-55
2021/11/13 05:14:34;;;;;;;;;;;;;;;23.57;47.07;102124.38;2067847;28;985;-55
2021/11/13 05:15:34;;;;;;;;;;;;;;;23.62;47.58;102125.16;2067858;28;803;-55
2021/11/13 05:16:35;;;;;;;;;;;;;;;23.64;45.74;102125.09;2067669;28;776;-55
2021/11/13 05:17:36;;;;;;;;;;;;;;;23.72;47.54;102128.50;2067695;28;1044;-55
2021/11/13 05:18:36;;;;;;;;;;;;;;;23.74;47.80;102125.75;2067698;28;862;-55